Airport Information

KSFF - Felts Fld Airport

KSFF 191753Z 27010G16KT 240V300 10SM FEW090 SCT100 20/02 A2993 RMK AO2 SLP122 T02000017 10217 20139 56005


  • General Information

  • Coordinates: N 47°40'58"/ W 117°19'21"
  • Location: N/A
  • Surveyed Elevation: 1953 MSL

Operations

Flow Name Active Runways Conditions

Green background denotes normal operations.


Common Frequencies

Callsign Frequency Position Name
SFF_GND 121.700 Felts Ground
SFF_TWR 132.500 Felts Tower
KSFF_ATIS 120.550 Felts Field ATIS

More at the Document Center


Charts

Name Description Cycle
FELTS FOUR Page 1 1904
HAYDEN FOUR Page 1 1904
Name Description Cycle
HILIE TWO Page 1 1904
ZOOMR ONE Page 1 1904